Terminal Aerodrome Forecast
Issued by NWS

Home | Current Version | Previous Version | Text Only | Print | Product List | Glossary On
Versions: 1 2 3 4 5 6 7 8 9 10 11 12 13 14 15 16 17 18 19 20 21 22 23 24 25 26 27 28 29 30 31 32 33 34
000
FTUS42 KGSP 220537
TAFHKY
TAF
KHKY 220537Z 2206/2306 05005KT P6SM -DZ OVC025
     FM220900 04006KT P6SM -RADZ OVC015
      TEMPO 2210/2214 5SM -RADZ BR OVC006
     FM221400 04007KT 6SM -DZ BR OVC006
     FM221800 04006KT 6SM BR OVC012
     FM230100 05005KT 5SM -DZ BR OVC008=

USA.gov is the U.S. government's official web portal to all federal, state and local government web resources and services.